Webcam  Webcam


Lyn radar more information blitzortung!


Regn radar more information rain snow radar



Lokal METAR Rapport

   
EHVK - Volkel Rnlafb, Netherlands
Afstand fra station: SV 18 km
Opdateret: 13-04-2021 00:25
Klart  
Klart  
   Vind: VSV 1.5 m/s
Vind: VSV 1.5 m/s
Temperatur: 1°C
Kuldeindeks: -1°C
Dugpunkt: -2°C
Luftfugtighed: 81%
Barometer: 1030 hPa
Skyet: Klart
Sigtbarhed: mere end 10 km
Sky detaljer: Klart
EHVK 122225Z AUTO 25003KT 9999 NCD 01/M02 Q1030 BLU
EDLV - Niederrhein, Germany
Afstand fra station: SØ 25 km
Opdateret: 12-04-2021 16:50
Ikke Aktuelt
Delvis skyet  
Delvis skyet  
   Vind: NV 5.7 m/s
Vind: NV 5.7 m/s
Temperatur: 6°C
Kuldeindeks: 2°C
Dugpunkt: -2°C
Luftfugtighed: 57%
Barometer: 1028 hPa
Skyet: Delvis skyet
Sigtbarhed: mere end 10 km
Sky detaljer: Delvis skyet 3000 ft
EDLV 121450Z 32011KT 290V010 9999 SCT030 06/M02 Q1028
EHDL - Deelen Rnlafb, Netherlands
Afstand fra station: N 35 km
Opdateret: 13-04-2021 00:25
Klart  
Klart  
   Vind: Syd 1 m/s
Vind: Syd 1 m/s
Temperatur: -1°C
Dugpunkt: -3°C
Luftfugtighed: 86%
Barometer: 1030 hPa
Skyet: Klart
Sigtbarhed: mere end 10 km
Sky detaljer: Klart
EHDL 122225Z AUTO 18002KT 9999 NCD M01/M03 Q1030 BLU
EHEH - Eindhoven Rnlafb, Netherlands
Afstand fra station: SV 48 km
Opdateret: 13-04-2021 00:25
Klart  
Klart  
   Vind: VSV 1.5 m/s
Vind: VSV 1.5 m/s
Temperatur: -2°C
Kuldeindeks: -4°C
Dugpunkt: -4°C
Luftfugtighed: 86%
Barometer: 1031 hPa
Skyet: Klart
Sigtbarhed: mere end 10 km
Sky detaljer: Klart
EHEH 122225Z AUTO 24003KT 9999 NCD M02/M04 Q1031 BLU
EBBL - Kleine-Brogel(Ba, Belgium
Afstand fra station: SSV 71 km
Opdateret: 13-04-2021 00:25
Klart  
Klart  
   Vind: varierer 1 m/s
Vind: varierer 1 m/s
Temperatur: -1°C
Dugpunkt: -3°C
Luftfugtighed: 86%
Barometer: 1031 hPa
Skyet: Klart
Sigtbarhed: mere end 10 km
Sky detaljer: Klart
EBBL 122225Z AUTO VRB02KT 9999 NCD M01/M03 Q1031 BLU
 

Script udviklet af  Saratoga-weather.org Tilpasset til denne template af  Weerstation Leuven

Du finder også vores vejrinformationer på:

UK Metoffice

European Weather Network

WeatherCloud

Weather Underground

AWEKAS

Citizen Weather Observer Program (CWOP)

HAMweather, WeatherForYou, PWS Weather

Udstyr som vi anvender:

Vejrstation
Davis VP2

Vejrprogram
Meteobridge

Vejrserver
Meteobridge Pro

Davis VP2

Meteobridge

Meteobridge Pro